Battle Point — NMBY — position and weather

sailwx.info

Track history (hours):
 
Tides and Currents Weather Stations Pressure Air Temp Water Temp Dewpoint Dewpoint Depression Visibility Wind Speed Wind Dir Waves Ship Positions

Battle Point

Last reported at 2014-Oct-19 01:33 UTC. Time now 2014-Oct-22 22:37 UTC.
Position N 47°50' W 122°39'.

Length 57 m; draft 3.2 m.

MMSI: 369970254.

Date/timePositionNaut miles runAvg speedWind from/ knotsBaromVisibWave heightAir tempDewpointWater temp
2014-Oct-19 01:33N 47°50' W 122°39'9 8.5
2014-Oct-19 00:31N 47°59' W 122°39'17 8.5
2014-Oct-18 22:30N 48°15' W 122°49'1010.6
2014-Oct-18 21:33N 48°24' W 122°45'10 9.7
2014-Oct-18 20:33N 48°34' W 122°45'9 8.6
2014-Oct-18 19:33N 48°42' W 122°45'10 9.9
2014-Oct-18 18:33N 48°48' W 122°57'1010.1
2014-Oct-18 17:33N 48°54' W 123°09'1010.3
2014-Oct-18 16:33N 49°00' W 123°22'1010.1
2014-Oct-18 15:33N 49°07' W 123°33'1010.5
2014-Oct-18 14:33N 49°13' W 123°47'1110.7
2014-Oct-18 13:33N 49°16' W 124°03'4 4.1
2014-Oct-18 12:33N 49°16' W 124°09'3 0.1
2014-Oct-16 18:33N 49°16' W 124°05'8 7.5
2014-Oct-16 17:33N 49°17' W 123°54'3 3.0
2014-Oct-16 16:33N 49°18' W 123°58'7 7.4
2014-Oct-16 15:33N 49°16' W 124°09'3 0.2
2014-Oct-16 02:29N 49°16' W 124°04'6 0.2
2014-Oct-15 01:33N 49°15' W 123°56'1110.9
2014-Oct-15 00:33N 49°12' W 123°40'1111.5
2014-Oct-14 23:33N 49°06' W 123°25'1111.1
2014-Oct-14 22:33N 48°59' W 123°11'1010.5
2014-Oct-14 21:33N 48°52' W 122°59'1111.0
2014-Oct-14 20:33N 48°45' W 122°46'10 9.9
2014-Oct-14 19:33N 48°36' W 122°45'1111.4
2014-Oct-14 18:33N 48°24' W 122°44'1110.9
2014-Oct-14 17:33N 48°13' W 122°48'9 9.3
2014-Oct-14 16:33N 48°06' W 122°39'10 9.6
2014-Oct-14 15:32N 47°57' W 122°38'8 8.4
2014-Oct-14 14:33N 47°49' W 122°42'  
Track history (hours):
 
Tides and Currents Weather Stations Pressure Air Temp Water Temp Dewpoint Dewpoint Depression Visibility Wind Speed Wind Dir Waves Ship Positions

Battle Point

Last reported at 2014-Oct-19 01:33 UTC. Time now 2014-Oct-22 22:37 UTC.
Position N 47°50' W 122°39'.

Length 57 m; draft 3.2 m.

MMSI: 369970254.

Date/timePositionNaut miles runAvg speedWind from/ knotsBaromVisibWave heightAir tempDewpointWater temp
2014-Oct-19 01:33N 47°50' W 122°39'9 8.5
2014-Oct-19 00:31N 47°59' W 122°39'17 8.5
2014-Oct-18 22:30N 48°15' W 122°49'1010.6
2014-Oct-18 21:33N 48°24' W 122°45'10 9.7
2014-Oct-18 20:33N 48°34' W 122°45'9 8.6
2014-Oct-18 19:33N 48°42' W 122°45'10 9.9
2014-Oct-18 18:33N 48°48' W 122°57'1010.1
2014-Oct-18 17:33N 48°54' W 123°09'1010.3
2014-Oct-18 16:33N 49°00' W 123°22'1010.1
2014-Oct-18 15:33N 49°07' W 123°33'1010.5
2014-Oct-18 14:33N 49°13' W 123°47'1110.7
2014-Oct-18 13:33N 49°16' W 124°03'4 4.1
2014-Oct-18 12:33N 49°16' W 124°09'3 0.1
2014-Oct-16 18:33N 49°16' W 124°05'8 7.5
2014-Oct-16 17:33N 49°17' W 123°54'3 3.0
2014-Oct-16 16:33N 49°18' W 123°58'7 7.4
2014-Oct-16 15:33N 49°16' W 124°09'3 0.2
2014-Oct-16 02:29N 49°16' W 124°04'6 0.2
2014-Oct-15 01:33N 49°15' W 123°56'1110.9
2014-Oct-15 00:33N 49°12' W 123°40'1111.5
2014-Oct-14 23:33N 49°06' W 123°25'1111.1
2014-Oct-14 22:33N 48°59' W 123°11'1010.5
2014-Oct-14 21:33N 48°52' W 122°59'1111.0
2014-Oct-14 20:33N 48°45' W 122°46'10 9.9
2014-Oct-14 19:33N 48°36' W 122°45'1111.4
2014-Oct-14 18:33N 48°24' W 122°44'1110.9
2014-Oct-14 17:33N 48°13' W 122°48'9 9.3
2014-Oct-14 16:33N 48°06' W 122°39'10 9.6
2014-Oct-14 15:32N 47°57' W 122°38'8 8.4
2014-Oct-14 14:33N 47°49' W 122°42'  

Dump ship's entire track history